Tiempo atmosférico en la estación meteorológica de Astorga, León (919 m.)



Fecha
DESCASC
Temp. máxima en grados centígrados (hora)
DESCASC
Temp. mínima en grados centígrados (hora)
DESCASC
Temp. media en grados centígrados
DESCASC
Racha de viento máxima en m/sg (hora)
DESCASC
Velocidad máxima media en intervalos de 10 minutos(hora)
DESCASC
Precipitaciones diarias en mm
DESCASC
Precipitaciones de 00:00 a 06:00 en mm
DESCASC
Precipitaciones de 06:00 a 12:00 en mm
DESCASC
Precipitaciones de 12:00 a 18:00 en mm
DESCASC
Precipitaciones de 18:00 a 24:00 en mm
DESCASC
13-01-2021 8 (17:00) -6.3 (09:20) 0.8 3.89 (15:40) 2.5 (16:20) 0 0 0 0 0
12-01-2021 9.5 (15:30) -6.7 (08:10) 1.4 3.61 (16:00) 2.5 (05:00) 0 0 0 0 0
11-01-2021 10.3 (15:30) -4.5 (05:30) 2.9 9.17 (01:50) 6.94 (01:50) 0 0 0 0 0
10-01-2021 5.9 (12:40) -1.8 (23:30) 2.1 16.39 (12:50) 11.39 (13:50) 0 0 0 0 0
09-01-2021 2.5 (14:00) -5 (-00:0) -1.3 15.28 (15:50) 11.39 (15:50) 0 0 0 0 0
08-01-2021 7 (15:10) -8.5 (-00:0) -0.8 6.94 (17:40) 5 (18:50) 0 0 0 0 0
07-01-2021 7.3 (15:30) -8.2 (-00:0) -0.4 4.44 (16:20) 2.22 (13:10) 0 0 0 0 0
06-01-2021 8.3 (14:40) -6 (-00:0) 1.2 3.89 (13:00) 2.5 (21:00) 0 0 0 0 0
05-01-2021 9.3 (15:10) -4.9 (-00:0) 2.2 6.67 (03:00) 4.17 (16:40) 0 0 0 0 0
04-01-2021 5.1 (15:10) -3.3 (-00:0) 0.9 11.39 (11:50) 6.67 (12:40) 0 0 0 0 0
03-01-2021 5.9 (13:10) -1.3 (-00:0) 2.3 13.33 (13:50) 7.5 (13:50) 0 0 0 0 0
02-01-2021 5.6 (16:00) -2.8 (-00:0) 1.4 9.72 (14:40) 5.83 (14:30) 0 0 0 0 0
01-01-2021 5.9 (13:10) -1.8 (-00:0) 2.1 13.33 (14:50) 7.5 (14:30) 0 0 0 0 0
31-12-2020 8.1 (15:00) 0.8 (00:00) 4.5 13.89 (13:40) 5.56 (11:40) 1.4 0 0.6 0.8 0
30-12-2020 6.4 (12:30) -0.7 (-00:0) 2.9 10.28 (02:50) 5.28 (12:10) 0 0 0 0 0
29-12-2020 5.3 (14:20) -0.4 (00:00) 2.5 12.5 (15:20) 6.67 (01:10) 0.2 0.2 0 0 0
28-12-2020 5.2 (00:00) 0 (00:00) 2.6 18.89 (01:30) 10.28 (02:20) 7.8 4.6 0.4 1.2 1.6
27-12-2020 8.1 (14:50) -4.5 (-00:0) 1.8 22.22 (22:10) 12.5 (22:00) 2.6 0 0 0 2.6
26-12-2020 8.2 (15:00) -5.1 (-00:0) 1.5 4.44 (15:20) 3.61 (00:50) 0 0 0 0 0
25-12-2020 9 (14:00) -3.3 (-00:0) 2.9 9.17 (17:00) 7.22 (17:20) 0 0 0 0 0
24-12-2020 8.9 (14:40) -1.9 (-00:0) 3.5 8.89 (14:00) 5 (14:50) 0 0 0 0 0
23-12-2020 10.4 (15:30) 3 (00:00) 6.7 8.33 (15:50) 4.72 (16:00) 0.2 0 0.2 0 0
22-12-2020 13.4 (15:00) 7.8 (00:00) 10.6 12.5 (14:50) 9.72 (15:10) 0 0 0 0 0
21-12-2020 10.2 (13:10) 5.6 (00:00) 7.9 4.17 (01:30) 3.33 (01:50) 0.2 0.2 0 0 0
20-12-2020 10.9 (16:00) 1.3 (00:00) 6.1 5.56 (05:40) 3.61 (05:40) 1.4 0 0 0 1.4
19-12-2020 11.7 (13:00) 3.2 (00:00) 7.4 13.89 (02:50) 9.72 (02:50) 2 1.4 0.6 0 0

Gráficas

Temp. máximas Temp. mínimas Temp. medias Precipitaciones Rachas de viento máximas Velocidades máximas media en intervalos de 10 minutos

Datos horarios

Fecha y hora oficial Temperatura (ºC) Velocidad del viento (km/h) Dirección del viento Racha (km/h) Dirección de racha Precipitación (mm) Presión (hPa) Tendencia (hPa) Humedad (%)
2021-01-17 23:00:00 -0.3 4 Sudoeste 9 Norte 0 -- -- 97
2021-01-17 22:00:00 0.5 2 Sudoeste 7 Sur 0 -- -- 95
2021-01-17 21:00:00 1.1 3 Sudeste 6 Este 0 -- -- 92
2021-01-17 20:00:00 3.1 4 Sudeste 15 Noroeste 0 -- -- 85
2021-01-17 19:00:00 7.9 12 Noroeste 22 Oeste 0 -- -- 71
2021-01-17 18:00:00 10.1 12 Noroeste 21 Noroeste 0 -- -- 64
2021-01-17 17:00:00 13.5 10 Noroeste 17 Noroeste 0 -- -- 53
2021-01-17 16:00:00 13.7 4 Sudoeste 9 Sur 0 -- -- 49
2021-01-17 15:00:00 11 5 Sur 11 Sudeste 0 -- -- 53
2021-01-17 14:00:00 7.9 6 Sur 11 Sur 0 -- -- 59
2021-01-17 13:00:00 5.7 5 Sur 10 Sudeste 0 -- -- 62
2021-01-17 12:00:00 3.6 4 Sur 8 Sudoeste 0 -- -- 78
2021-01-17 11:00:00 -0.8 5 Sudoeste 8 Sudoeste 0 -- -- 88
2021-01-17 10:00:00 -3 2 Nordeste 6 Nordeste 0 -- -- 93
2021-01-17 09:00:00 -7.3 2 Sur 8 Norte 0 -- -- 95
2021-01-17 08:00:00 -7.4 4 Norte 8 Norte 0 -- -- 95
2021-01-17 07:00:00 -7.3 2 Norte 5 Sudoeste 0 -- -- 95
2021-01-17 06:00:00 -7.5 0 Calma 6 Oeste 0 -- -- 95
2021-01-17 05:00:00 -7.1 5 Norte 8 Norte 0 -- -- 95
2021-01-17 04:00:00 -7.3 3 Nordeste 6 Norte 0 -- -- 94
2021-01-17 03:00:00 -7.5 2 Sudoeste 9 Norte 0 -- -- 94
2021-01-17 02:00:00 -7.6 3 Nordeste 8 Norte 0 -- -- 95
2021-01-17 01:00:00 -7.2 8 Norte 9 Norte 0 -- -- 95
2021-01-17 00:00:00 -7.1 2 Sudoeste 7 Norte 0 -- -- 95
2021-01-16 23:00:00 -6.7 0 Calma 5 Sudoeste 0 -- -- 95
2021-01-16 22:00:00 -5.9 2 Norte 7 Sudoeste 0 -- -- 96
2021-01-16 21:00:00 -4.9 6 Norte 8 Nordeste 0 -- -- 96
2021-01-16 20:00:00 -4.1 0 Calma 5 Sudoeste 0 -- -- 97
2021-01-16 19:00:00 -3.4 0 Calma 8 Sur 0 -- -- 98
2021-01-16 18:00:00 0.6 8 Sur 10 Sur 0 -- -- 82
2021-01-16 17:00:00 5.8 4 Sur 8 Sudeste 0 -- -- 64
2021-01-16 16:00:00 6.7 4 Sur 12 Sudeste 0 -- -- 63
2021-01-16 15:00:00 5.3 7 Sur 11 Sur 0 -- -- 66
2021-01-16 14:00:00 5.8 6 Sur 12 Sur 0 -- -- 66
2021-01-16 13:00:00 3.7 8 Sur 12 Sur 0 -- -- 70
2021-01-16 12:00:00 2.7 3 Sur 7 Sur 0 -- -- 73
2021-01-16 11:00:00 -0.7 3 Sudoeste 8 Sudoeste 0 -- -- 79
2021-01-16 10:00:00 -2.4 3 Norte 8 Norte 0 -- -- 83
2021-01-16 09:00:00 -6.5 2 Sur 5 Sur 0 -- -- 94
2021-01-16 08:00:00 -5.3 3 Sudoeste 4 Sur 0 -- -- 96
2021-01-16 07:00:00 -5 0 Calma 6 Norte 0 -- -- 95
2021-01-16 06:00:00 -4.3 0 Calma 7 Oeste 0 -- -- 93
2021-01-16 05:00:00 -4.2 2 Sudoeste 10 Nordeste 0 -- -- 95
2021-01-16 04:00:00 -4.4 5 Nordeste 8 Norte 0 -- -- 94
2021-01-16 03:00:00 -3.1 3 Sur 9 Norte 0 -- -- 96
2021-01-16 02:00:00 -4.2 5 Norte 10 Norte 0 -- -- 95
2021-01-16 01:00:00 -3.5 9 Noroeste 12 Noroeste 0 -- -- 98
2021-01-16 00:00:00 -2.9 0 Calma 5 Oeste 0 -- -- 98
2021-01-15 23:00:00 -3.1 2 Noroeste 10 Norte 0 -- -- 98
2021-01-15 22:00:00 -2.8 3 Norte 5 Norte 0 -- -- 97
2021-01-15 21:00:00 -2.8 3 Norte 5 Norte 0 -- -- 98
2021-01-15 20:00:00 -2.3 0 Calma 6 Noroeste 0 -- -- 97
2021-01-15 19:00:00 -0.9 2 Sudoeste 4 Sur 0 -- -- 94
2021-01-15 18:00:00 2.1 3 Sur 9 Sudeste 0 -- -- 81
2021-01-15 17:00:00 3.8 6 Sur 12 Sur 0 -- -- 79
2021-01-15 16:00:00 5.3 8 Sur 12 Sur 0 -- -- 74
2021-01-15 15:00:00 5.8 7 Sur 12 Sudeste 0 -- -- 73
2021-01-15 14:00:00 4.8 2 Sur 6 Sur 0 -- -- 88
2021-01-15 13:00:00 0.5 3 Sur 12 Sudoeste 0 -- -- 92
2021-01-15 12:00:00 -1.1 3 Sudeste 9 Sudoeste 0 -- -- 93
2021-01-15 11:00:00 -3.3 6 Nordeste 12 Este 0 -- -- 96
2021-01-15 10:00:00 -3.8 0 Calma 8 Norte 0 -- -- 97
2021-01-15 09:00:00 -5 5 Sudoeste 14 Norte 0 -- -- 96
2021-01-15 08:00:00 -6 5 Sudoeste 8 Nordeste 0 -- -- 95
2021-01-15 07:00:00 -4.7 0 Calma 8 Norte 0 -- -- 99
2021-01-15 06:00:00 -3.7 4 Norte 11 Norte 0 -- -- 98
2021-01-15 05:00:00 -2.3 5 Nordeste 14 Nordeste 0 -- -- 98
2021-01-15 04:00:00 -0.9 8 Nordeste 10 Este 0 -- -- 97
2021-01-15 03:00:00 0.4 4 Oeste 6 Noroeste 0 -- -- 100
2021-01-15 02:00:00 -0.2 4 Norte 8 Norte 0 -- -- 97
2021-01-15 01:00:00 0.7 4 Norte 6 Norte 0 -- -- 97
2021-01-15 00:00:00 1.1 0 Calma 4 Oeste 0 -- -- 95
2021-01-14 23:00:00 0.9 5 Norte 10 Noroeste 0 -- -- 94
2021-01-14 22:00:00 1.2 6 Norte 12 Norte 0 -- -- 92
2021-01-14 21:00:00 0.7 9 Norte 14 Norte 0 -- -- 91
2021-01-14 20:00:00 2.6 4 Norte 18 Noroeste 0 -- -- 84
2021-01-14 19:00:00 5.3 8 Noroeste 19 Noroeste 0 -- -- 74
2021-01-14 18:00:00 7.5 10 Noroeste 26 Noroeste 0 -- -- 64
2021-01-14 17:00:00 10.9 13 Noroeste 23 Norte 0 -- -- 54
2021-01-14 16:00:00 11.7 5 Norte 10 Nordeste 0 -- -- 50
2021-01-14 15:00:00 10.3 6 Sur 10 Sudoeste 0 -- -- 48
2021-01-14 14:00:00 9.8 5 Sur 10 Sur 0 -- -- 47
2021-01-14 13:00:00 7.3 5 Sur 8 Sudeste 0 -- -- 58
2021-01-14 12:00:00 4.1 4 Sudoeste 7 Sur 0 -- -- 70
2021-01-14 11:00:00 1.7 3 Sur 6 Sur 0 -- -- 74
2021-01-14 10:00:00 -1.8 0 Calma 4 Sudoeste 0 -- -- 85
2021-01-14 09:00:00 -6 0 Calma 7 Norte 0 -- -- 97
2021-01-14 08:00:00 -4.9 8 Norte 10 Norte 0 -- -- 97
2021-01-14 07:00:00 -4.4 0 Calma 3 Norte 0 -- -- 98
2021-01-14 06:00:00 -4.2 0 Calma 4 Norte 0 -- -- 97
2021-01-14 05:00:00 -3.9 2 Norte 4 Sudoeste 0 -- -- 96
2021-01-14 04:00:00 -3.4 0 Calma 6 Norte 0 -- -- 97
2021-01-14 03:00:00 -4.4 4 Norte 5 Norte 0 -- -- 96
2021-01-14 02:00:00 -4.2 4 Nordeste 5 Norte 0 -- -- 96
2021-01-14 01:00:00 -3.1 0 Calma 6 Norte 0 -- -- 95
2021-01-14 00:00:00 -3 5 Norte 5 Norte 0 -- -- 94
2021-01-13 23:00:00 -2.1 0 Calma 6 Norte 0 -- -- 91
2021-01-13 22:00:00 -1.4 5 Norte 8 Norte 0 -- -- 88
2021-01-13 21:00:00 -1.5 7 Norte 8 Norte 0 -- -- 89
2021-01-13 20:00:00 0.4 0 Calma 7 Sudoeste 0 -- -- 81
2021-01-13 19:00:00 1.7 3 Sudoeste 9 Sur 0 -- -- 75
2021-01-13 18:00:00 5.2 7 Sudeste 9 Sudeste 0 -- -- 62
2021-01-13 17:00:00 8 5 Sur 13 Sudeste 0 -- -- 54
2021-01-13 16:00:00 7.7 8 Sudeste 14 Sur 0 -- -- 55
2021-01-13 15:00:00 7.4 7 Sur 13 Sur 0 -- -- 56
2021-01-13 14:00:00 6.3 5 Sur 13 Sur 0 -- -- 59
2021-01-13 13:00:00 4.8 5 Sur 10 Sur 0 -- -- 63
2021-01-13 12:00:00 2.9 5 Sur 9 Sur 0 -- -- 72
2021-01-13 11:00:00 3.1 0 Calma 5 Nordeste 0 -- -- 70
2021-01-13 10:00:00 -1.7 2 Nordeste 8 Norte 0 -- -- 89
2021-01-13 09:00:00 -5.7 2 Norte 4 Nordeste 0 -- -- 96
2021-01-13 08:00:00 -4.7 0 Calma 4 Norte 0 -- -- 98
2021-01-13 07:00:00 -4.8 5 Norte 6 Norte 0 -- -- 96
2021-01-13 06:00:00 -4.5 5 Norte 7 Norte 0 -- -- 94
2021-01-13 05:00:00 -3.9 0 Calma 4 Oeste 0 -- -- 95
2021-01-13 04:00:00 -4.3 2 Sur 5 Sur 0 -- -- 95
2021-01-13 03:00:00 -2.8 4 Sudoeste 5 Sudoeste 0 -- -- 93
2021-01-13 02:00:00 -2.4 5 Noroeste 7 Norte 0 -- -- 91
2021-01-13 01:00:00 -3.2 7 Norte 9 Norte 0 -- -- 89
2021-01-13 00:00:00 -1.1 0 Calma 5 Oeste 0 -- -- 88
2021-01-12 23:00:00 -1.3 2 Sudoeste 4 Sur 0 -- -- 89
2021-01-12 22:00:00 -0.4 2 Nordeste 6 Este 0 -- -- 81
2021-01-12 21:00:00 0.2 4 Norte 6 Nordeste 0 -- -- 78
2021-01-12 20:00:00 2.1 2 Sur 3 Sudeste 0 -- -- 72
2021-01-12 19:00:00 2.9 0 Calma 5 Sudeste 0 -- -- 69
2021-01-12 18:00:00 6.8 4 Sur 9 Sur 0 -- -- 56
2021-01-12 17:00:00 9.5 5 Sudeste 13 Sudeste 0 -- -- 49
2021-01-12 16:00:00 9 8 Sur 13 Sur 0 -- -- 49
2021-01-12 15:00:00 8.7 5 Sudeste 11 Sudeste 0 -- -- 46
2021-01-12 14:00:00 6.7 6 Sur 11 Sur 0 -- -- 52
2021-01-12 13:00:00 5.3 6 Sur 9 Sur 0 -- -- 56
2021-01-12 12:00:00 2.8 5 Sur 10 Sur 0 -- -- 64
2021-01-12 11:00:00 1.2 6 Sur 9 Sur 0 -- -- 70
2021-01-12 10:00:00 2.1 0 Calma 6 Norte 0 -- -- 65
2021-01-12 09:00:00 -5.6 7 Norte 9 Norte 0 -- -- 94
2021-01-12 08:00:00 -6.6 0 Calma 6 Norte 0 -- -- 91
2021-01-12 07:00:00 -5.6 2 Noroeste 9 Norte 0 -- -- 92
2021-01-12 06:00:00 -5.5 2 Noroeste 10 Norte 0 -- -- 90
2021-01-12 05:00:00 -5.3 9 Norte 10 Norte 0 -- -- 90
2021-01-12 04:00:00 -6.2 5 Norte 11 Norte 0 -- -- 91
2021-01-12 03:00:00 -4.7 5 Norte 6 Norte 0 -- -- 88
2021-01-12 02:00:00 -4.1 2 Sur 9 Norte 0 -- -- 84
2021-01-12 01:00:00 -4.3 6 Norte 8 Norte 0 -- -- 86
2021-01-12 00:00:00 -3.4 0 Calma 9 Norte 0 -- -- 79
2021-01-11 23:00:00 -1.9 4 Nordeste 7 Norte 0 -- -- 73
2021-01-11 22:00:00 -1.2 3 Sudeste 6 Nordeste 0 -- -- 71
2021-01-11 21:00:00 -0.6 5 Norte 9 Sudeste 0 -- -- 67
2021-01-11 20:00:00 0.7 5 Nordeste 12 Este 0 -- -- 60
2021-01-11 19:00:00 2.6 5 Nordeste 11 Este 0 -- -- 53
2021-01-11 18:00:00 8 0 Calma 8 Sur 0 -- -- 43
2021-01-11 17:00:00 8.3 8 Sudeste 16 Sudeste 0 -- -- 44
2021-01-11 16:00:00 10.3 9 Este 20 Este 0 -- -- 36
2021-01-11 15:00:00 9.8 12 Nordeste 20 Nordeste 0 -- -- 34
2021-01-11 14:00:00 10 7 Nordeste 18 Nordeste 0 -- -- 35
2021-01-11 13:00:00 9.7 6 Norte 18 Nordeste 0 -- -- 36
2021-01-11 12:00:00 8.7 3 Nordeste 8 Sudeste 0 -- -- 39
2021-01-11 11:00:00 5.2 3 Sur 6 Sur 0 -- -- 48
2021-01-11 10:00:00 2.7 3 Norte 8 Noroeste 0 -- -- 52
2021-01-11 09:00:00 -3.3 5 Noroeste 14 Norte 0 -- -- 65
2021-01-11 08:00:00 -3.6 7 Norte 14 Norte 0 -- -- 68
2021-01-11 07:00:00 -3.1 4 Noroeste 23 Norte 0 -- -- 64
2021-01-11 06:00:00 -4.5 20 Norte 23 Norte 0 -- -- 74
2021-01-11 05:00:00 -3.1 4 Norte 11 Norte 0 -- -- 69
2021-01-11 04:00:00 -2.6 6 Norte 14 Norte 0 -- -- 67
2021-01-11 03:00:00 -2.5 11 Norte 26 Norte 0 -- -- 68
2021-01-11 02:00:00 -0.5 23 Norte 33 Norte 0 -- -- 63
2021-01-11 01:00:00 -0.3 21 Norte 30 Norte 0 -- -- 62
2021-01-11 00:00:00 -1.3 8 Norte 17 Norte 0 -- -- 61
2021-01-10 23:00:00 -0.7 6 Oeste 22 Norte 0 -- -- 56
2021-01-10 22:00:00 -0.9 12 Norte 19 Norte 0 -- -- 59
2021-01-10 21:00:00 -0.7 8 Norte 19 Norte 0 -- -- 58
2021-01-10 20:00:00 -0.4 8 Norte 33 Nordeste 0 -- -- 59
2021-01-10 19:00:00 0.4 20 Nordeste 35 Nordeste 0 -- -- 58
2021-01-10 18:00:00 2 28 Nordeste 43 Nordeste 0 -- -- 51
2021-01-10 17:00:00 4.4 24 Nordeste 47 Nordeste 0 -- -- 46
2021-01-10 16:00:00 5 26 Nordeste 54 Norte 0 -- -- 41
2021-01-10 15:00:00 4.8 41 Norte 56 Norte 0 -- -- 44
2021-01-10 14:00:00 4.8 37 Norte 55 Nordeste 0 -- -- 45
2021-01-10 13:00:00 4.9 37 Nordeste 59 Norte 0 -- -- 46
2021-01-10 12:00:00 4.1 36 Norte 55 Norte 0 -- -- 52
2021-01-10 11:00:00 3.3 36 Norte 51 Norte 0 -- -- 55
2021-01-10 10:00:00 2.1 30 Norte 45 Nordeste 0 -- -- 60
2021-01-10 09:00:00 1.1 35 Norte 47 Norte 0 -- -- 64
2021-01-10 08:00:00 1 26 Norte 44 Nordeste 0 -- -- 63
2021-01-10 07:00:00 1.3 25 Norte 35 Norte 0 -- -- 64
2021-01-10 06:00:00 1.5 20 Nordeste 46 Norte 0 -- -- 66
2021-01-10 05:00:00 1.5 28 Nordeste 41 Norte 0 -- -- 68
2021-01-10 04:00:00 1.4 23 Nordeste 49 Norte 0 -- -- 67
2021-01-10 03:00:00 1.2 26 Norte 37 Norte 0 -- -- 68
2021-01-10 02:00:00 1.1 25 Norte 39 Nordeste 0 -- -- 67
2021-01-10 01:00:00 0.9 26 Nordeste 36 Nordeste 0 -- -- 67
2021-01-10 00:00:00 0.9 18 Nordeste 31 Nordeste 0 -- -- 67
2021-01-09 23:00:00 0.8 23 Nordeste 35 Nordeste 0 -- -- 67
2021-01-09 22:00:00 0.9 24 Nordeste 38 Nordeste 0 -- -- 64
2021-01-09 21:00:00 0.7 30 Nordeste 42 Nordeste 0 -- -- 65
2021-01-09 20:00:00 0.9 30 Nordeste 44 Norte 0 -- -- 63
2021-01-09 19:00:00 1 31 Nordeste 47 Nordeste 0 -- -- 64
2021-01-09 18:00:00 1.2 30 Nordeste 49 Nordeste 0 -- -- 62
2021-01-09 17:00:00 1.6 35 Nordeste 53 Nordeste 0 -- -- 59
2021-01-09 16:00:00 1.6 40 Nordeste 55 Nordeste 0 -- -- 59
2021-01-09 15:00:00 1.8 36 Nordeste 53 Norte 0 -- -- 59
2021-01-09 14:00:00 2.5 32 Nordeste 49 Norte 0 -- -- 56
2021-01-09 13:00:00 1.8 31 Norte 46 Norte 0 -- -- 59
2021-01-09 12:00:00 1.9 31 Nordeste 45 Norte 0 -- -- 57
2021-01-09 11:00:00 0.8 24 Nordeste 30 Nordeste 0 -- -- 63
2021-01-09 10:00:00 -0.6 15 Norte 36 Norte 0 -- -- 65
2021-01-09 09:00:00 -1 26 Norte 40 Nordeste 0 -- -- 65
2021-01-09 08:00:00 -1.2 27 Norte 42 Nordeste 0 -- -- 66
2021-01-09 07:00:00 -1.5 22 Norte 33 Nordeste 0 -- -- 64
2021-01-09 06:00:00 -2.2 17 Norte 24 Norte 0 -- -- 61
2021-01-09 05:00:00 -2.6 14 Norte 21 Norte 0 -- -- 61
2021-01-09 04:00:00 -3 14 Norte 20 Norte 0 -- -- 59
2021-01-09 03:00:00 -3.8 13 Norte 21 Norte 0 -- -- 55
2021-01-09 02:00:00 -4.7 8 Norte 14 Norte 0 -- -- 59
2021-01-09 01:00:00 -4.5 9 Norte 14 Norte 0 -- -- 60
2021-01-09 00:00:00 -4.6 9 Norte 14 Norte 0 -- -- 61
2021-01-08 23:00:00 -4.5 5 Norte 15 Norte 0 -- -- 59
2021-01-08 22:00:00 -4 8 Norte 14 Norte 0 -- -- 58
2021-01-08 21:00:00 -3.2 11 Norte 15 Norte 0 -- -- 56
2021-01-08 20:00:00 -2.7 11 Norte 23 Norte 0 -- -- 60
2021-01-08 19:00:00 -1.6 16 Norte 23 Norte 0 -- -- 58
2021-01-08 18:00:00 0.9 14 Nordeste 25 Norte 0 -- -- 48
2021-01-08 17:00:00 4.8 13 Nordeste 22 Nordeste 0 -- -- 36
2021-01-08 16:00:00 6.2 12 Nordeste 23 Nordeste 0 -- -- 31
2021-01-08 15:00:00 6.4 10 Nordeste 21 Nordeste 0 -- -- 29
2021-01-08 14:00:00 6.2 10 Nordeste 21 Este 0 -- -- 34
2021-01-08 13:00:00 5.2 7 Nordeste 14 Nordeste 0 -- -- 40
2021-01-08 12:00:00 3 5 Nordeste 8 Nordeste 0 -- -- 55
2021-01-08 11:00:00 -2.8 5 Nordeste 10 Nordeste 0 -- -- 77
2021-01-08 10:00:00 -4.6 5 Noroeste 14 Oeste 0 -- -- 86
2021-01-08 09:00:00 -7.8 3 Oeste 6 Noroeste 0 -- -- 94
2021-01-08 08:00:00 -7.5 0 Calma 6 Noroeste 0 -- -- 91
2021-01-08 07:00:00 -6.8 4 Norte 5 Noroeste 0 -- -- 91
2021-01-08 06:00:00 -7 0 Calma 8 Norte 0 -- -- 90
2021-01-08 05:00:00 -6 3 Este 9 Sudeste 0 -- -- 89
2021-01-08 04:00:00 -6.8 6 Sur 10 Sudeste 0 -- -- 89
2021-01-08 03:00:00 -6.5 0 Calma 6 Norte 0 -- -- 92
2021-01-08 02:00:00 -6.9 6 Norte 9 Norte 0 -- -- 89
2021-01-08 01:00:00 -4.4 6 Noroeste 13 Oeste 0 -- -- 83
2021-01-08 00:00:00 -3.6 4 Sudoeste 11 Oeste 0 -- -- 82
2021-01-07 23:00:00 -2.4 4 Oeste 6 Oeste 0 -- -- 76
2021-01-07 22:00:00 -2 2 Nordeste 8 Norte 0 -- -- 74
2021-01-07 21:00:00 -1.6 4 Nordeste 9 Norte 0 -- -- 74
2021-01-07 20:00:00 -1.6 6 Norte 8 Norte 0 -- -- 74
2021-01-07 19:00:00 0 2 Sudoeste 8 Sudeste 0 -- -- 66
2021-01-07 18:00:00 2.6 5 Sudeste 12 Sudeste 0 -- -- 56
2021-01-07 17:00:00 5.8 7 Sudeste 16 Sur 0 -- -- 46
2021-01-07 16:00:00 6.2 7 Este 14 Sur 0 -- -- 44
2021-01-07 15:00:00 5.8 5 Este 15 Este 0 -- -- 48
2021-01-07 14:00:00 5.6 6 Este 14 Este 0 -- -- 48
2021-01-07 13:00:00 5.3 7 Norte 13 Nordeste 0 -- -- 53
2021-01-07 12:00:00 4.3 5 Nordeste 8 Nordeste 0 -- -- 57
2021-01-07 11:00:00 2.3 3 Nordeste 5 Norte 0 -- -- 68
2021-01-07 10:00:00 -3 0 Calma 7 Norte 0 -- -- 80
2021-01-07 09:00:00 -8.1 4 Noroeste 7 Noroeste 0 -- -- 93
2021-01-07 08:00:00 -7.7 4 Noroeste 9 Norte 0 -- -- 94
2021-01-07 07:00:00 -7.7 4 Noroeste 8 Nordeste 0 -- -- 93
2021-01-07 06:00:00 -6.9 0 Calma 6 Noroeste 0 -- -- 92
2021-01-07 05:00:00 -4.7 4 Noroeste 6 Norte 0 -- -- 89
2021-01-07 04:00:00 -5.7 0 Calma 5 Este 0 -- -- 93
2021-01-07 03:00:00 -6.1 0 Calma 5 Sudoeste 0 -- -- 92
2021-01-07 02:00:00 -5.9 2 Nordeste 5 Norte 0 -- -- 89
2021-01-07 01:00:00 -4.7 0 Calma 4 Norte 0 -- -- 91
2021-01-07 00:00:00 -4.3 0 Calma 6 Norte 0 -- -- 88
2021-01-06 23:00:00 -3 5 Norte 9 Norte 0 -- -- 83
2021-01-06 22:00:00 -2.1 7 Norte 12 Norte 0 -- -- 80
2021-01-06 21:00:00 -1.4 9 Norte 11 Norte 0 -- -- 77
2021-01-06 20:00:00 -2 6 Norte 8 Norte 0 -- -- 78
2021-01-06 19:00:00 0.1 2 Sur 6 Sudeste 0 -- -- 66
2021-01-06 18:00:00 2 5 Sudeste 11 Sudeste 0 -- -- 59
2021-01-06 17:00:00 5.8 5 Este 13 Este 0 -- -- 49
2021-01-06 16:00:00 7.3 5 Este 14 Este 0 -- -- 47
2021-01-06 15:00:00 5.3 5 Este 12 Este 0 -- -- 52
2021-01-06 14:00:00 5.4 8 Sur 14 Este 0 -- -- 53
2021-01-06 13:00:00 4.9 7 Sudeste 14 Sur 0 -- -- 55
2021-01-06 12:00:00 5.4 5 Norte 8 Norte 0 -- -- 53
2021-01-06 11:00:00 2.8 2 Sur 7 Sur 0 -- -- 66
2021-01-06 10:00:00 -1 3 Sudoeste 6 Norte 0 -- -- 78
2021-01-06 09:00:00 -5.9 4 Norte 9 Norte 0 -- -- 93
2021-01-06 08:00:00 -4.3 8 Norte 9 Norte 0 -- -- 92
2021-01-06 07:00:00 -4 6 Norte 8 Norte 0 -- -- 94
2021-01-06 06:00:00 -4.3 4 Nordeste 5 Este 0 -- -- 93
2021-01-06 05:00:00 -3.7 4 Sur 6 Sudeste 0 -- -- 88
2021-01-06 04:00:00 -3.2 5 Norte 13 Norte 0 -- -- 86
2021-01-06 03:00:00 -1.8 4 Norte 11 Noroeste 0 -- -- 80
2021-01-06 02:00:00 -1.8 8 Norte 13 Norte 0 -- -- 81
2021-01-06 01:00:00 -1.6 4 Norte 11 Norte 0 -- -- 82
2021-01-06 00:00:00 -0.7 4 Norte 9 Noroeste 0 -- -- 81
2021-01-05 23:00:00 -1.4 4 Noroeste 8 Norte 0 -- -- 86
2021-01-05 22:00:00 -1.7 6 Norte 8 Norte 0 -- -- 85
2021-01-05 21:00:00 -1.2 2 Sudoeste 10 Noroeste 0 -- -- 81
2021-01-05 20:00:00 -1.6 4 Norte 10 Norte 0 -- -- 85
2021-01-05 19:00:00 -0.7 4 Nordeste 14 Noroeste 0 -- -- 78
2021-01-05 18:00:00 2.1 6 Noroeste 20 Norte 0 -- -- 66
2021-01-05 17:00:00 4.8 14 Noroeste 24 Noroeste 0 -- -- 58
2021-01-05 16:00:00 5.4 12 Norte 19 Norte 0 -- -- 53
2021-01-05 15:00:00 8.9 7 Norte 14 Noroeste 0 -- -- 44
2021-01-05 14:00:00 4 8 Norte 15 Noroeste 0 -- -- 57
2021-01-05 13:00:00 7.8 5 Nordeste 12 Sur 0 -- -- 47
2021-01-05 12:00:00 4.9 8 Sur 13 Sur 0 -- -- 64
2021-01-05 11:00:00 2 6 Nordeste 9 Nordeste 0 -- -- 70
2021-01-05 10:00:00 1.2 2 Nordeste 6 Norte 0 -- -- 71
2021-01-05 09:00:00 -4.2 0 Calma 9 Norte 0 -- -- 92
2021-01-05 08:00:00 -4.6 9 Norte 17 Oeste 0 -- -- 90
2021-01-05 07:00:00 -3.2 4 Norte 19 Oeste 0 -- -- 81
2021-01-05 06:00:00 -2.2 10 Oeste 17 Oeste 0 -- -- 78
2021-01-05 05:00:00 -4.3 5 Norte 13 Noroeste 0 -- -- 87
2021-01-05 04:00:00 -4.7 6 Norte 14 Noroeste 0 -- -- 87
2021-01-05 03:00:00 -2.2 10 Noroeste 24 Oeste 0 -- -- 77
2021-01-05 02:00:00 -3.3 9 Noroeste 21 Oeste 0 -- -- 82
2021-01-05 01:00:00 -2.6 10 Noroeste 21 Oeste 0 -- -- 81
2021-01-05 00:00:00 -1.9 14 Noroeste 23 Oeste 0 -- -- 79
2021-01-04 23:00:00 -2.3 10 Noroeste 23 Noroeste 0 -- -- 81
2021-01-04 22:00:00 -1.8 13 Oeste 21 Oeste 0 -- -- 79
2021-01-04 21:00:00 -1.5 9 Noroeste 17 Noroeste 0 -- -- 76
2021-01-04 20:00:00 -1.1 11 Noroeste 18 Noroeste 0 -- -- 74
2021-01-04 19:00:00 -0.9 10 Noroeste 19 Noroeste 0 -- -- 76
2021-01-04 18:00:00 0.5 8 Noroeste 24 Norte 0 -- -- 69
2021-01-04 17:00:00 4.5 13 Noroeste 23 Noroeste 0 -- -- 56
2021-01-04 16:00:00 3.7 14 Noroeste 27 Noroeste 0 -- -- 59
2021-01-04 15:00:00 3.9 15 Noroeste 27 Noroeste 0 -- -- 62
2021-01-04 14:00:00 3.6 17 Noroeste 37 Noroeste 0 -- -- 64
2021-01-04 13:00:00 3.2 22 Noroeste 35 Noroeste 0 -- -- 64
2021-01-04 12:00:00 3.3 22 Noroeste 41 Noroeste 0 -- -- 64
2021-01-04 11:00:00 3.1 14 Noroeste 32 Noroeste 0 -- -- 64
2021-01-04 10:00:00 1.9 3 Sur 21 Oeste 0 -- -- 71
2021-01-04 09:00:00 -1.6 4 Sudoeste 27 Oeste 0 -- -- 84
2021-01-04 08:00:00 -1.3 11 Noroeste 25 Noroeste 0 -- -- 83
2021-01-04 07:00:00 -1.2 12 Oeste 21 Oeste 0 -- -- 85
2021-01-04 06:00:00 -1.5 7 Oeste 21 Noroeste 0 -- -- 85
2021-01-04 05:00:00 -1.1 12 Noroeste 31 Oeste 0 -- -- 84
2021-01-04 04:00:00 -1 18 Noroeste 33 Noroeste 0 -- -- 84
2021-01-04 03:00:00 -1.1 16 Noroeste 28 Noroeste 0 -- -- 85
2021-01-04 02:00:00 -1 16 Noroeste 34 Noroeste 0 -- -- 85
2021-01-04 01:00:00 -1.1 14 Noroeste 30 Oeste 0 -- -- 87
2021-01-04 00:00:00 -0.7 13 Oeste 23 Noroeste 0 -- -- 87
2021-01-03 23:00:00 -0.6 14 Noroeste 25 Noroeste 0 -- -- 86
2021-01-03 22:00:00 -0.6 15 Noroeste 28 Oeste 0 -- -- 85
2021-01-03 21:00:00 -0.1 16 Noroeste 26 Oeste 0 -- -- 84
2021-01-03 20:00:00 0.3 14 Noroeste 24 Noroeste 0 -- -- 84
2021-01-03 19:00:00 0.6 12 Oeste 26 Oeste 0 -- -- 84
2021-01-03 18:00:00 1.2 14 Oeste 25 Oeste 0 -- -- 86
2021-01-03 17:00:00 2.9 12 Noroeste 33 Oeste 0 -- -- 77
2021-01-03 16:00:00 3.9 17 Noroeste 41 Noroeste 0 -- -- 69
2021-01-03 15:00:00 4.8 23 Noroeste 43 Noroeste 0 -- -- 60
2021-01-03 14:00:00 5.1 23 Noroeste 48 Noroeste 0 -- -- 60
2021-01-03 13:00:00 4.6 14 Noroeste 36 Norte 0 -- -- 65
2021-01-03 12:00:00 4.5 18 Noroeste 38 Noroeste 0 -- -- 67
2021-01-03 11:00:00 3.3 20 Noroeste 37 Noroeste 0 -- -- 75
2021-01-03 10:00:00 1 14 Noroeste 27 Noroeste 0 -- -- 83
2021-01-03 09:00:00 0 12 Noroeste 28 Noroeste 0 -- -- 86
2021-01-03 08:00:00 -0.6 5 Sudoeste 18 Oeste 0 -- -- 86
2021-01-03 07:00:00 -0.7 9 Oeste 16 Oeste 0 -- -- 86
2021-01-03 06:00:00 -0.8 11 Oeste 21 Oeste 0 -- -- 86
2021-01-03 05:00:00 -0.6 7 Noroeste 19 Noroeste 0 -- -- 84
2021-01-03 04:00:00 -0.8 6 Oeste 15 Noroeste 0 -- -- 86
2021-01-03 03:00:00 -1.2 5 Sur 17 Oeste 0 -- -- 87
2021-01-03 02:00:00 -1.3 5 Sudoeste 24 Noroeste 0 -- -- 87
2021-01-03 01:00:00 -0.1 14 Noroeste 28 Noroeste 0 -- -- 79
2021-01-03 00:00:00 -1.2 10 Oeste 24 Noroeste 0 -- -- 85
2021-01-02 23:00:00 -0.3 12 Oeste 24 Noroeste 0 -- -- 79
2021-01-02 22:00:00 -0.7 12 Oeste 22 Oeste 0 -- -- 81
2021-01-02 21:00:00 -0.6 10 Oeste 21 Oeste 0 -- -- 80
2021-01-02 20:00:00 -0.2 12 Noroeste 20 Oeste 0 -- -- 80
2021-01-02 19:00:00 0.5 12 Noroeste 22 Oeste 0 -- -- 77
2021-01-02 18:00:00 1.2 14 Noroeste 26 Noroeste 0 -- -- 73
2021-01-02 17:00:00 4.5 15 Noroeste 28 Noroeste 0 -- -- 59
2021-01-02 16:00:00 5.6 17 Noroeste 27 Noroeste 0 -- -- 55
2021-01-02 15:00:00 5.5 17 Noroeste 35 Norte 0 -- -- 54
2021-01-02 14:00:00 5.1 21 Noroeste 32 Noroeste 0 -- -- 58